Latest Weather Observations for Rhyll

IDV60901

Issued at 8:12 pm EDT Wednesday 28 January 2015 (issued every 10 minutes, with the page automatically refreshed every 10 minutes)

About weather observations | Map of Melbourne area stations | Latest observations for Melbourne area | Other Formats
Station Details ID: 086373 Name: RHYLL Lat: -38.46 Lon: 145.31 Height: 13.4 m
Data from the previous 72 hours. | See also: Recent months at Rhyll
Date/Time
EDT
Tmp

°C
App
Tmp
°C
Dew
Point
°C
Rel
Hum
%
Delta-T

°C
Wind Press
QNH
hPa
Press
MSL
hPa
Rain
since
9 am
mm
Dir
 
Spd
km/h
Gust
km/h
Spd
kts
Gust
kts
28/08:00pm 18.6 13.0 11.4 63 3.9 ESE 32 39 17 21 1019.6 1019.6 0.0
28/07:30pm 18.4 15.7 13.5 73 2.8 SE 20 33 11 18 1019.5 1019.5 0.0
28/07:00pm 18.4 15.0 12.4 68 3.3 SE 22 32 12 17 1019.3 1019.3 0.0
28/06:30pm 18.8 15.0 12.3 66 3.6 SE 24 33 13 18 1019.3 1019.3 0.0
28/05:30pm 19.2 14.0 11.5 61 4.2 SSE 30 41 16 22 1019.2 1019.2 0.0
28/05:00pm 19.5 14.4 12.0 62 4.2 SE 30 39 16 21 1019.2 1019.2 0.0
28/04:30pm 19.8 14.5 12.6 63 4.0 SSE 32 43 17 23 1019.2 1019.2 0.0
28/04:00pm 20.1 14.7 14.0 68 3.5 SSE 35 46 19 25 1019.1 1019.1 0.0
28/03:30pm 20.2 15.5 14.3 69 3.4 SSE 32 46 17 25 1019.2 1019.2 0.0
28/03:00pm 20.7 15.9 14.6 68 3.6 SSE 33 43 18 23 1019.1 1019.1 0.0
28/02:30pm 20.6 15.7 13.6 64 4.0 SSE 32 46 17 25 1019.0 1019.0 0.0
28/02:00pm 21.1 16.3 14.5 66 3.9 SSE 33 46 18 25 1019.1 1019.1 0.0
28/01:30pm 20.8 15.4 12.8 60 4.5 SSE 33 43 18 23 1019.2 1019.2 0.0
28/01:00pm 20.8 16.3 13.7 64 4.1 SSE 30 41 16 22 1019.1 1019.1 0.0
28/12:30pm 20.7 16.8 13.2 62 4.3 SE 26 35 14 19 1019.1 1019.1 0.0
28/12:00pm 20.3 17.3 12.5 61 4.4 SE 20 30 11 16 1019.1 1019.1 0.0
28/11:30am 21.3 17.5 13.7 62 4.4 SE 26 41 14 22 1019.2 1019.2 0.0
28/11:00am 20.6 16.3 13.1 62 4.3 SE 28 39 15 21 1019.2 1019.2 0.0
28/10:30am 20.2 14.9 13.2 64 4.0 ESE 33 41 18 22 1019.4 1019.4 0.0
28/10:00am 19.2 14.1 13.2 68 3.4 ESE 32 43 17 23 1019.4 1019.4 0.0
28/09:30am 18.2 12.9 12.6 70 3.1 ESE 32 41 17 22 1019.3 1019.3 0.0
28/09:00am 18.4 13.0 12.2 67 3.4 E 32 37 17 20 1019.3 1019.3 0.0
28/08:30am 17.2 11.2 12.1 72 2.8 ESE 35 43 19 23 1018.7 1018.7 0.0
28/08:00am 16.9 13.0 12.2 74 2.6 ESE 24 32 13 17 1018.5 1018.5 0.0
28/07:30am 16.2 11.3 11.4 73 2.6 ESE 28 33 15 18 1018.4 1018.4 0.0
28/07:00am 15.4 12.0 11.2 76 2.2 ESE 20 30 11 16 1018.2 1018.2 0.0
28/06:30am 14.6 10.7 10.8 78 2.0 E 22 32 12 17 1018.0 1018.0 0.0
28/06:00am 15.1 11.5 9.7 70 2.8 ESE 19 30 10 16 1017.5 1017.5 0.0
28/05:30am 14.9 13.2 9.9 72 2.6 SE 9 19 5 10 1017.1 1017.1 0.0
28/05:00am 14.7 12.1 10.7 77 2.1 ESE 15 19 8 10 1017.2 1017.2 0.0
28/04:30am 14.2 11.2 10.8 80 1.8 E 17 20 9 11 1017.1 1017.1 0.0
28/04:00am 15.3 12.8 11.1 76 2.2 ESE 15 20 8 11 1016.9 1016.8 0.0
28/03:30am 14.8 12.7 11.0 78 2.0 ESE 13 17 7 9 1017.1 1017.1 0.0
28/03:00am 14.6 12.7 10.6 77 2.1 ESE 11 15 6 8 1017.3 1017.3 0.0
28/02:30am 15.0 13.6 11.0 77 2.1 ESE 9 15 5 8 1017.4 1017.4 0.0
28/02:00am 15.1 13.4 11.1 77 2.1 ESE 11 17 6 9 1017.6 1017.6 0.0
28/01:30am 14.7 13.6 10.5 76 2.2 SSE 7 9 4 5 1017.8 1017.8 0.0
28/01:00am 14.5 13.4 10.5 77 2.1 SSE 7 13 4 7 1018.2 1018.2 0.0
28/12:30am 14.7 13.1 10.1 74 2.4 SSE 9 13 5 7 1018.3 1018.3 0.0
28/12:00am 15.4 13.5 10.4 72 2.6 S 11 15 6 8 1018.3 1018.3 0.0
 
Date/Time
EDT
Tmp

°C
App
Tmp
°C
Dew
Point
°C
Rel
Hum
%
Delta-T

°C
Wind Press
QNH
hPa
Press
MSL
hPa
Rain
since
9 am
mm
Dir
 
Spd
km/h
Gust
km/h
Spd
kts
Gust
kts
27/11:30pm 15.3 13.5 10.7 74 2.4 S 11 19 6 10 1018.4 1018.4 0.0
27/11:00pm 15.6 13.2 10.2 70 2.8 S 13 20 7 11 1018.6 1018.6 0.0
27/10:30pm 15.7 13.3 10.2 70 2.9 S 13 19 7 10 1018.6 1018.6 0.0
27/10:00pm 15.7 13.3 10.2 70 2.9 S 13 22 7 12 1018.5 1018.5 0.0
27/09:30pm 15.2 12.8 10.0 71 2.7 S 13 20 7 11 1018.2 1018.2 0.0
27/09:00pm 15.1 12.7 9.9 71 2.7 S 13 20 7 11 1018.1 1018.1 0.0
27/08:30pm 15.4 13.3 9.7 69 3.0 S 11 19 6 10 1018.0 1018.0 0.0
27/08:00pm 16.5 14.2 10.4 67 3.2 S 13 19 7 10 1017.8 1017.8 0.0
27/07:30pm 17.4 15.1 10.3 63 3.8 S 13 19 7 10 1017.5 1017.5 0.0
27/07:00pm 17.7 15.0 10.3 62 3.9 SSE 15 24 8 13 1017.3 1017.3 0.0
27/06:30pm 18.5 15.8 10.3 59 4.4 S 15 26 8 14 1017.2 1017.2 0.0
27/06:00pm 18.9 16.0 9.7 55 4.9 S 15 20 8 11 1017.2 1017.2 0.0
27/05:30pm 19.4 16.8 10.7 57 4.7 S 15 24 8 13 1017.3 1017.3 0.0
27/05:00pm 20.1 17.4 10.5 54 5.2 S 15 22 8 12 1017.4 1017.4 0.0
27/04:30pm 20.2 17.7 11.1 56 5.0 S 15 24 8 13 1017.4 1017.4 0.0
27/04:00pm 19.0 16.1 11.1 60 4.3 S 17 30 9 16 1017.5 1017.5 0.0
27/03:30pm 20.3 17.5 11.2 56 5.0 S 17 24 9 13 1017.5 1017.5 0.0
27/03:00pm 20.0 16.8 10.1 53 5.3 S 17 26 9 14 1017.6 1017.6 0.0
27/02:30pm 20.1 17.2 9.7 51 5.6 S 15 20 8 11 1017.6 1017.6 0.0
27/02:00pm 19.1 16.5 10.6 58 4.6 S 15 22 8 12 1017.7 1017.7 0.0
27/01:30pm 18.1 15.7 10.2 60 4.2 S 13 20 7 11 1017.8 1017.8 0.0
27/01:00pm 18.4 15.6 10.0 58 4.5 S 15 24 8 13 1017.9 1017.9 0.0
27/12:30pm 19.3 17.3 11.6 61 4.2 S 13 20 7 11 1017.9 1017.9 0.0
27/12:00pm 19.7 17.2 11.2 58 4.6 SSE 15 24 8 13 1018.1 1018.1 0.0
27/11:30am 18.8 16.4 11.4 62 4.0 S 15 22 8 12 1018.1 1018.1 0.0
27/11:00am 17.9 14.9 10.8 63 3.8 SSE 17 22 9 12 1018.0 1018.0 0.0
27/10:30am 17.5 14.6 10.9 65 3.6 SSE 17 24 9 13 1018.0 1018.0 0.0
27/10:00am 17.2 14.7 9.6 61 4.0 S 13 20 7 11 1017.9 1017.9 0.0
27/09:30am 16.7 14.4 10.3 66 3.4 S 13 20 7 11 1017.8 1017.8 0.0
27/09:00am 16.3 13.9 9.9 66 3.3 SSE 13 19 7 10 1017.6 1017.6 0.0
27/08:30am 17.4 15.1 10.5 64 3.7 SSE 13 19 7 10 1017.5 1017.5 0.0
27/08:00am 16.7 14.8 10.5 67 3.3 SSE 11 17 6 9 1017.3 1017.3 0.0
27/07:30am 15.9 14.4 10.7 71 2.8 SE 9 15 5 8 1017.1 1017.1 0.0
27/07:00am 14.8 13.3 10.4 75 2.3 SE 9 13 5 7 1016.9 1016.8 0.0
27/06:30am 14.3 12.6 9.9 75 2.3 SE 9 17 5 9 1016.8 1016.7 0.0
27/06:00am 14.1 12.7 9.5 74 2.4 SE 7 11 4 6 1016.7 1016.6 0.0
27/05:30am 13.8 12.0 9.5 75 2.2 SSE 9 15 5 8 1016.6 1016.5 0.0
27/05:00am 14.3 13.0 9.9 75 2.3 SE 7 13 4 7 1016.6 1016.5 0.0
27/04:30am 14.2 12.8 9.6 74 2.4 SE 7 11 4 6 1016.7 1016.6 0.0
27/04:00am 14.4 12.6 9.6 73 2.5 SE 9 17 5 9 1016.7 1016.6 0.0
27/03:30am 14.4 12.3 9.6 73 2.5 SE 11 20 6 11 1017.0 1016.9 0.0
27/03:00am 14.4 12.6 9.6 73 2.5 SE 9 19 5 10 1017.0 1016.9 0.0
27/02:30am 14.3 12.0 9.1 71 2.6 SSE 11 17 6 9 1017.1 1017.1 0.0
27/02:00am 13.9 11.5 8.7 71 2.6 SSE 11 15 6 8 1017.4 1017.4 0.0
27/01:30am 13.9 11.5 8.5 70 2.7 SSE 11 17 6 9 1017.6 1017.6 0.0
27/01:00am 14.0 11.5 8.4 69 2.8 SSE 11 17 6 9 1017.8 1017.8 0.0
27/12:30am 14.0 11.1 8.0 67 3.0 SSE 13 19 7 10 1018.0 1018.0 0.0
27/12:00am 14.3 11.5 8.5 68 2.9 SSE 13 19 7 10 1018.0 1018.0 0.0
 
Date/Time
EDT
Tmp

°C
App
Tmp
°C
Dew
Point
°C
Rel
Hum
%
Delta-T

°C
Wind Press
QNH
hPa
Press
MSL
hPa
Rain
since
9 am
mm
Dir
 
Spd
km/h
Gust
km/h
Spd
kts
Gust
kts
26/11:30pm 14.4 11.2 8.4 67 3.0 SSE 15 20 8 11 1018.0 1018.0 0.0
26/11:00pm 14.6 11.5 8.8 68 2.9 SSE 15 20 8 11 1018.3 1018.3 0.0
26/10:30pm 14.8 12.1 9.0 68 3.0 SSE 13 19 7 10 1018.3 1018.3 0.0
26/10:00pm 14.5 11.7 8.7 68 2.9 SSE 13 20 7 11 1018.2 1018.2 0.0
26/09:30pm 14.9 11.8 8.8 67 3.1 SSE 15 22 8 12 1018.1 1018.1 0.0
26/09:00pm 14.8 11.8 9.2 69 2.9 SSE 15 22 8 12 1017.9 1017.9 0.0
26/08:30pm 15.2 12.5 8.9 66 3.2 S 13 22 7 12 1017.7 1017.7 0.0
26/08:00pm 16.3 13.2 9.0 62 3.8 S 15 22 8 12 1017.4 1017.4 0.0
26/07:30pm 17.2 14.6 9.4 60 4.1 S 13 20 7 11 1017.1 1017.1 0.0
26/07:00pm 17.8 15.2 9.2 57 4.5 S 13 20 7 11 1016.8 1016.7 0.0
26/06:30pm 18.5 15.6 9.6 56 4.7 S 15 22 8 12 1016.7 1016.6 0.0
26/06:00pm 18.7 15.6 8.9 53 5.1 S 15 22 8 12 1016.6 1016.5 0.0
26/05:30pm 18.8 15.6 8.5 51 5.3 S 15 24 8 13 1016.6 1016.5 0.0
26/05:00pm 19.0 15.8 10.0 56 4.8 S 17 28 9 15 1017.0 1016.9 0.0
26/04:30pm 20.3 17.7 10.7 54 5.2 S 15 22 8 12 1017.1 1017.1 0.0
26/04:00pm 20.3 18.6 12.3 60 4.5 S 13 22 7 12 1017.0 1016.9 0.0
26/03:30pm 20.5 18.0 11.2 55 5.1 S 15 22 8 12 1017.0 1016.9 0.0
26/03:00pm 20.2 18.0 10.9 55 5.1 S 13 20 7 11 1016.9 1016.8 0.0
26/02:30pm 20.7 18.5 10.8 53 5.4 S 13 22 7 12 1016.9 1016.8 0.0
26/02:00pm 19.8 17.3 9.7 52 5.4 S 13 20 7 11 1017.0 1016.9 0.0
26/01:30pm 20.0 17.8 10.7 55 5.1 S 13 20 7 11 1017.1 1017.1 0.0
26/01:00pm 20.3 17.7 9.5 50 5.7 S 13 24 7 13 1017.4 1017.4 0.0
26/12:30pm 20.1 17.6 9.7 51 5.6 S 13 22 7 12 1017.3 1017.3 0.0
26/12:00pm 18.1 15.7 8.7 54 4.9 S 11 19 6 10 1017.3 1017.3 0.0
26/11:30am 17.9 15.9 8.5 54 4.8 S 9 20 5 11 1017.2 1017.2 0.0
26/11:00am 19.1 17.4 9.9 55 4.9 SSW 9 20 5 11 1017.1 1017.1 0.0
26/10:30am 19.6 17.9 9.8 53 5.2 SSE 9 15 5 8 1017.1 1017.1 0.0
26/10:00am 18.2 16.7 9.0 55 4.8 S 7 17 4 9 1016.8 1016.7 0.0
26/09:30am 17.7 16.1 8.6 55 4.7 S 7 15 4 8 1016.8 1016.7 0.0
26/09:00am 17.6 16.1 9.0 57 4.5 S 7 17 4 9 1016.6 1016.5 0.0
26/08:30am 16.7 14.8 8.9 60 4.0 S 9 19 5 10 1016.3 1016.2 0.0
26/08:00am 15.3 12.6 7.3 59 3.9 S 11 19 6 10 1015.8 1015.7 0.0
26/07:30am 14.6 13.0 7.9 64 3.3 SSW 6 9 3 5 1015.4 1015.3 0.0
26/07:00am 13.4 12.4 8.7 73 2.4 WNW 4 7 2 4 1015.3 1015.2 0.0
26/06:30am 13.6 11.9 7.6 67 2.9 WSW 6 7 3 4 1015.0 1014.9 0.0
26/06:00am 13.0 11.1 6.6 65 3.1 SW 6 7 3 4 1014.7 1014.6 0.0
26/05:30am 13.2 11.1 5.9 61 3.4 SW 6 9 3 5 1014.2 1014.1 0.0
26/05:00am 13.4 11.1 5.6 59 3.7 SW 7 11 4 6 1013.9 1013.8 0.0
26/04:30am 13.1 11.1 6.2 63 3.3 WSW 6 9 3 5 1013.7 1013.6 0.0
26/04:00am 13.0 10.8 5.4 60 3.5 WSW 6 9 3 5 1013.6 1013.5 0.0
26/03:30am 13.4 10.3 5.6 59 3.7 SW 11 20 6 11 1013.5 1013.4 0.0
26/03:00am 13.0 11.1 7.7 70 2.6 WSW 7 13 4 7 1013.4 1013.3 0.0
26/02:30am 13.0 11.4 8.1 72 2.4 W 6 9 3 5 1013.3 1013.2 0.0
26/02:00am 13.6 11.7 7.6 67 2.9 WSW 7 15 4 8 1013.3 1013.2 0.0
26/01:30am 13.5 11.6 7.7 68 2.9 W 7 11 4 6 1013.3 1013.2 0.0
26/01:00am 13.1 11.1 6.9 66 3.0 WSW 7 11 4 6 1013.2 1013.1 0.0
26/12:30am 13.5 11.5 7.1 65 3.1 WSW 7 13 4 7 1013.2 1013.1 0.0
26/12:00am 13.2 10.8 7.2 67 2.9 WSW 9 13 5 7 1013.2 1013.1 0.0
 
Date/Time
EDT
Tmp

°C
App
Tmp
°C
Dew
Point
°C
Rel
Hum
%
Delta-T

°C
Wind Press
QNH
hPa
Press
MSL
hPa
Rain
since
9 am
mm
Dir
 
Spd
km/h
Gust
km/h
Spd
kts
Gust
kts
25/11:30pm 12.8 11.3 8.5 75 2.1 W 6 9 3 5 1013.1 1013.0 0.0
25/11:00pm 14.4 12.5 7.5 63 3.4 WSW 7 17 4 9 1013.1 1013.0 0.0
25/10:30pm 14.3 12.5 7.8 65 3.2 WSW 7 17 4 9 1013.1 1013.0 0.0
25/10:00pm 14.1 11.7 6.9 62 3.5 WSW 9 17 5 9 1013.0 1012.9 0.0
25/09:30pm 14.5 11.2 6.3 58 3.9 WSW 13 24 7 13 1012.6 1012.5 0.0
25/09:00pm 14.3 11.6 7.4 63 3.4 WSW 11 20 6 11 1012.4 1012.3 0.0
25/08:30pm 14.7 11.6 7.3 61 3.6 WSW 13 24 7 13 1012.0 1011.9 0.0

Latest Capital City Observations: Canberra | Sydney | Melbourne | Brisbane | Adelaide | Perth | Hobart | Darwin

Other Formats:

Comma delimited format used in spreadsheet applications
http://www.bom.gov.au/fwo/IDV60901/IDV60901.94892.axf

JavaScript Object Notation format (JSON) in row-major order
http://www.bom.gov.au/fwo/IDV60901/IDV60901.94892.json